createdAt,value
2023-06-03T00:00:31.680Z,100468.38
2023-06-03T00:03:04.755Z,100462.94
2023-06-03T00:05:33.262Z,100468.94
2023-06-03T00:08:03.819Z,100461.03
2023-06-03T00:10:32.913Z,100472.25
2023-06-03T00:13:01.494Z,100459.09
2023-06-03T00:15:30.094Z,100471.25
2023-06-03T00:17:58.715Z,100478.19
2023-06-03T00:20:29.472Z,100480.66
2023-06-03T00:22:57.981Z,100475.38
2023-06-03T00:25:28.328Z,100478.81
2023-06-03T00:27:56.674Z,100481.50
2023-06-03T00:30:25.494Z,100473.59
2023-06-03T00:32:54.017Z,100476.16
2023-06-03T00:35:23.052Z,100479.59
2023-06-03T00:37:51.534Z,100472.63
2023-06-03T00:40:20.164Z,100480.44
2023-06-03T00:42:50.361Z,100475.19
2023-06-03T00:45:19.336Z,100465.56
2023-06-03T00:47:48.101Z,100469.97
2023-06-03T00:50:17.960Z,100463.84
2023-06-03T00:52:46.914Z,100473.38
2023-06-03T00:55:15.828Z,100476.88
2023-06-03T00:57:44.210Z,100472.47
2023-06-03T01:00:15.072Z,100468.13
2023-06-03T01:02:45.589Z,100464.56
2023-06-03T01:05:14.829Z,100461.00
2023-06-03T01:07:53.745Z,100468.84
2023-06-03T01:10:29.810Z,100463.50
2023-06-03T01:13:05.663Z,100464.34
2023-06-03T01:15:38.460Z,100465.22
2023-06-03T01:18:08.502Z,100459.88
2023-06-03T01:20:38.044Z,100459.00
2023-06-03T01:23:20.484Z,100469.41
2023-06-03T01:25:52.188Z,100465.88
2023-06-03T01:28:22.399Z,100457.94
2023-06-03T01:30:51.154Z,100462.22
2023-06-03T01:33:21.832Z,100458.66
2023-06-03T01:35:52.630Z,100462.03
2023-06-03T01:38:24.056Z,100453.25
2023-06-03T01:40:57.735Z,100459.34
2023-06-03T01:43:26.721Z,100454.94
2023-06-03T01:45:55.876Z,100452.25
2023-06-03T01:48:24.451Z,100460.94
2023-06-03T01:50:53.182Z,100457.38
2023-06-03T01:53:23.129Z,100461.66
2023-06-03T01:55:51.904Z,100454.56
2023-06-03T01:58:21.388Z,100458.81
2023-06-03T02:00:50.574Z,100459.69
2023-06-03T02:03:19.067Z,100463.97
2023-06-03T02:05:47.645Z,100458.69
2023-06-03T02:08:17.867Z,100467.34
2023-06-03T02:10:48.962Z,100474.19
2023-06-03T02:13:17.393Z,100471.50
2023-06-03T02:15:45.925Z,100476.69
2023-06-03T02:18:14.427Z,100476.63
2023-06-03T02:20:44.025Z,100477.44
2023-06-03T02:23:13.368Z,100473.06
2023-06-03T02:25:42.482Z,100470.38
2023-06-03T02:28:13.852Z,100468.59
2023-06-03T02:30:42.428Z,100470.19
2023-06-03T02:33:10.977Z,100473.50
2023-06-03T02:35:39.657Z,100474.31
2023-06-03T02:38:08.304Z,100471.59
2023-06-03T02:40:37.351Z,100478.53
2023-06-03T02:43:06.117Z,100470.50
2023-06-03T02:45:36.203Z,100471.28
2023-06-03T02:48:04.818Z,100474.66
2023-06-03T02:50:33.510Z,100466.75
2023-06-03T02:53:02.579Z,100467.56
2023-06-03T02:55:34.447Z,100473.47
2023-06-03T02:58:02.940Z,100478.63
2023-06-03T03:00:32.765Z,100474.16
2023-06-03T03:03:02.886Z,100483.59
2023-06-03T03:05:31.957Z,100480.78
2023-06-03T03:08:00.669Z,100476.25
2023-06-03T03:10:30.125Z,100474.47
2023-06-03T03:12:58.661Z,100473.56
2023-06-03T03:15:28.391Z,100477.00
2023-06-03T03:17:57.236Z,100481.41
2023-06-03T03:20:30.532Z,100488.34
2023-06-03T03:22:59.091Z,100490.06
2023-06-03T03:25:28.699Z,100490.06
2023-06-03T03:27:58.219Z,100488.22
2023-06-03T03:30:27.508Z,100488.22
2023-06-03T03:32:57.756Z,100485.59
2023-06-03T03:35:28.161Z,100492.56
2023-06-03T03:38:04.155Z,100496.13
2023-06-03T03:40:38.440Z,100483.00
2023-06-03T03:43:15.250Z,100495.16
2023-06-03T03:45:45.756Z,100497.78
2023-06-03T03:48:19.309Z,100493.41
2023-06-03T03:50:52.854Z,100497.78
2023-06-03T03:53:51.178Z,100493.38
2023-06-03T03:56:28.816Z,100496.81
2023-06-03T03:59:01.303Z,100496.72
2023-06-03T04:01:41.557Z,100495.78
2023-06-03T04:04:38.806Z,100505.25
2023-06-03T04:07:12.170Z,100508.69
2023-06-03T04:09:41.120Z,100512.88
2023-06-03T04:12:23.720Z,100507.47
2023-06-03T04:14:55.029Z,100508.31
2023-06-03T04:17:28.198Z,100502.22
2023-06-03T04:19:57.396Z,100509.09
2023-06-03T04:22:33.005Z,100503.78
2023-06-03T04:25:03.990Z,100508.78
2023-06-03T04:27:48.406Z,100511.13
2023-06-03T04:30:19.200Z,100520.56
2023-06-03T04:32:49.654Z,100512.53
2023-06-03T04:35:19.143Z,100520.34
2023-06-03T04:37:50.178Z,100515.88
2023-06-03T04:40:21.916Z,100520.13
2023-06-03T04:42:50.623Z,100520.00
2023-06-03T04:45:24.732Z,100517.38
2023-06-03T04:47:59.700Z,100523.50
2023-06-03T04:50:36.896Z,100520.88
2023-06-03T04:53:09.084Z,100514.69
2023-06-03T04:55:37.778Z,100524.16
2023-06-03T04:58:07.101Z,100518.88
2023-06-03T05:00:35.931Z,100518.84
2023-06-03T05:03:11.499Z,100517.97
2023-06-03T05:05:46.547Z,100513.56
2023-06-03T05:08:20.518Z,100521.34
2023-06-03T05:10:52.022Z,100517.84
2023-06-03T05:13:21.712Z,100512.69
2023-06-03T05:15:51.326Z,100511.84
2023-06-03T05:18:19.910Z,100517.06
2023-06-03T05:20:48.493Z,100511.94
2023-06-03T05:23:17.011Z,100509.31
2023-06-03T05:25:47.280Z,100517.06
2023-06-03T05:28:16.484Z,100506.56
2023-06-03T05:30:45.108Z,100510.91
2023-06-03T05:33:26.772Z,100521.41
2023-06-03T05:35:57.533Z,100515.22
2023-06-03T05:38:28.495Z,100513.44
2023-06-03T05:41:00.593Z,100512.47
2023-06-03T05:43:29.440Z,100511.41
2023-06-03T05:45:58.267Z,100519.16
2023-06-03T05:48:26.995Z,100515.59
2023-06-03T05:50:57.058Z,100518.28
2023-06-03T05:53:29.595Z,100519.16
2023-06-03T05:56:03.320Z,100515.59
2023-06-03T05:58:32.414Z,100513.81
2023-06-03T06:01:01.357Z,100522.59
2023-06-03T06:03:30.031Z,100512.25
2023-06-03T06:06:00.355Z,100515.75
2023-06-03T06:08:29.772Z,100509.56
2023-06-03T06:10:58.870Z,100516.69
2023-06-03T06:13:28.875Z,100515.91
2023-06-03T06:16:03.160Z,100524.63
2023-06-03T06:18:32.927Z,100515.00
2023-06-03T06:21:02.576Z,100518.56
2023-06-03T06:23:32.392Z,100512.53
2023-06-03T06:26:01.509Z,100513.44
2023-06-03T06:28:34.076Z,100516.94
2023-06-03T06:31:10.019Z,100521.34
2023-06-03T06:33:49.122Z,100526.63
2023-06-03T06:36:32.425Z,100526.78
2023-06-03T06:39:08.953Z,100526.91
2023-06-03T06:41:39.973Z,100532.16
2023-06-03T06:44:17.162Z,100523.56
2023-06-03T06:46:46.016Z,100527.00
2023-06-03T06:49:14.677Z,100528.78
2023-06-03T06:51:44.920Z,100529.66
2023-06-03T06:54:15.467Z,100527.16
2023-06-03T06:56:44.362Z,100528.09
2023-06-03T06:59:14.197Z,100537.78
2023-06-03T07:01:45.648Z,100534.31
2023-06-03T07:04:15.548Z,100532.59
2023-06-03T07:06:44.305Z,100532.66
2023-06-03T07:09:13.302Z,100525.72
2023-06-03T07:11:46.666Z,100537.97
2023-06-03T07:14:17.454Z,100532.84
2023-06-03T07:16:50.241Z,100541.69
2023-06-03T07:19:20.182Z,100529.63
2023-06-03T07:21:54.216Z,100531.44
2023-06-03T07:24:23.637Z,100540.31
2023-06-03T07:26:52.930Z,100542.19
2023-06-03T07:29:21.727Z,100545.75
2023-06-03T07:31:52.070Z,100535.41
2023-06-03T07:34:25.137Z,100538.22
2023-06-03T07:36:58.732Z,100538.31
2023-06-03T07:39:29.770Z,100529.72
2023-06-03T07:42:02.325Z,100528.94
2023-06-03T07:44:46.212Z,100530.00
2023-06-03T07:47:18.330Z,100527.59
2023-06-03T07:49:48.417Z,100534.75
2023-06-03T07:52:20.277Z,100527.09
2023-06-03T07:54:49.055Z,100532.47
2023-06-03T07:57:17.804Z,100529.16
2023-06-03T07:59:53.787Z,100533.81
2023-06-03T08:02:23.952Z,100537.34
2023-06-03T08:04:54.699Z,100542.66
2023-06-03T08:07:23.556Z,100535.84
2023-06-03T08:09:51.995Z,100533.44
2023-06-03T08:12:24.834Z,100528.41
2023-06-03T08:14:53.396Z,100511.88
2023-06-03T08:17:40.978Z,100520.88
2023-06-03T08:20:11.451Z,100524.56
2023-06-03T08:22:44.405Z,100521.41
2023-06-03T08:25:14.037Z,100529.47
2023-06-03T08:27:42.891Z,100526.19
2023-06-03T08:30:13.869Z,100528.22
2023-06-03T08:32:45.985Z,100524.09
2023-06-03T08:35:18.021Z,100520.72
2023-06-03T08:37:46.950Z,100525.97
2023-06-03T08:40:17.184Z,100515.59
2023-06-03T08:42:47.584Z,100525.28
2023-06-03T08:45:17.248Z,100512.31
2023-06-03T08:48:05.641Z,100522.06
2023-06-03T08:50:36.178Z,100507.41
2023-06-03T08:53:09.995Z,100506.88
2023-06-03T08:55:40.870Z,100509.75
2023-06-03T08:58:16.111Z,100503.94
2023-06-03T09:00:46.463Z,100504.22
2023-06-03T09:03:19.694Z,100517.59
2023-06-03T09:05:48.937Z,100515.09
2023-06-03T09:08:18.736Z,100513.47
2023-06-03T09:10:48.505Z,100515.28
2023-06-03T09:13:19.368Z,100503.25
2023-06-03T09:15:52.179Z,100515.59
2023-06-03T09:18:22.798Z,100508.75
2023-06-03T09:20:51.162Z,100507.16
2023-06-03T09:23:19.792Z,100515.19
2023-06-03T09:25:48.379Z,100505.84
2023-06-03T09:28:18.946Z,100506.00
2023-06-03T09:30:47.675Z,100507.00
2023-06-03T09:33:17.008Z,100502.78
2023-06-03T09:36:07.882Z,100506.44
2023-06-03T09:38:55.137Z,100516.16
2023-06-03T09:41:27.455Z,100507.50
2023-06-03T09:43:58.736Z,100505.84
2023-06-03T09:46:29.120Z,100498.88
2023-06-03T09:49:10.978Z,100493.78
2023-06-03T09:51:47.130Z,100494.75
2023-06-03T09:54:18.542Z,100496.69
2023-06-03T09:56:48.145Z,100496.91
2023-06-03T09:59:19.986Z,100492.72
2023-06-03T10:01:49.700Z,100502.50
2023-06-03T10:04:22.118Z,100501.72
2023-06-03T10:07:09.205Z,100484.31
2023-06-03T10:09:38.372Z,100487.91
2023-06-03T10:12:08.822Z,100488.00
2023-06-03T10:14:47.192Z,100489.00
2023-06-03T10:17:17.909Z,100490.88
2023-06-03T10:19:48.252Z,100487.44
2023-06-03T10:22:20.601Z,100493.56
2023-06-03T10:24:51.932Z,100483.13
2023-06-03T10:27:21.845Z,100489.31
2023-06-03T10:29:53.843Z,100476.34
2023-06-03T10:32:23.705Z,100490.47
2023-06-03T10:34:53.940Z,100487.13
2023-06-03T10:37:26.007Z,100482.91
2023-06-03T10:39:56.843Z,100480.41
2023-06-03T10:42:25.900Z,100478.81
2023-06-03T10:44:54.487Z,100491.16
2023-06-03T10:47:27.867Z,100493.03
2023-06-03T10:50:04.954Z,100480.81
2023-06-03T10:52:58.856Z,100486.97
2023-06-03T10:55:37.738Z,100480.84
2023-06-03T10:58:13.298Z,100492.34
2023-06-03T11:00:57.385Z,100486.19
2023-06-03T11:03:27.490Z,100480.09
2023-06-03T11:06:35.037Z,100481.06
2023-06-03T11:09:09.468Z,100483.81
2023-06-03T11:12:04.239Z,100473.34
2023-06-03T11:15:00.025Z,100469.84
2023-06-03T11:17:29.512Z,100456.75
2023-06-03T11:20:01.060Z,100456.81
2023-06-03T11:22:47.213Z,100470.94
2023-06-03T11:25:35.691Z,100466.66
2023-06-03T11:28:37.876Z,100468.47
2023-06-03T11:31:08.743Z,100480.81
2023-06-03T11:33:37.636Z,100473.06
2023-06-03T11:36:52.396Z,100468.75
2023-06-03T11:39:21.700Z,100460.00
2023-06-03T11:42:22.308Z,100460.09
2023-06-03T11:44:51.050Z,100462.81
2023-06-03T11:47:19.505Z,100455.84
2023-06-03T11:49:48.150Z,100454.97
2023-06-03T11:52:17.221Z,100459.41
2023-06-03T11:54:49.078Z,100451.56
2023-06-03T11:57:18.564Z,100441.97
2023-06-03T11:59:49.859Z,100449.09
2023-06-03T12:02:18.555Z,100447.31
2023-06-03T12:04:47.546Z,100446.44
2023-06-03T12:07:17.474Z,100444.69
2023-06-03T12:09:46.391Z,100443.84
2023-06-03T12:12:17.060Z,100444.75
2023-06-03T12:14:46.092Z,100459.75
2023-06-03T12:17:19.327Z,100454.56
2023-06-03T12:19:50.543Z,100452.88
2023-06-03T12:22:24.224Z,100450.28
2023-06-03T12:24:53.477Z,100449.47
2023-06-03T12:27:24.327Z,100434.59
2023-06-03T12:29:56.327Z,100435.50
2023-06-03T12:32:30.919Z,100430.22
2023-06-03T12:35:11.176Z,100433.75
2023-06-03T12:37:40.225Z,100440.81
2023-06-03T12:40:10.191Z,100429.41
2023-06-03T12:42:40.439Z,100437.31
2023-06-03T12:45:10.920Z,100434.72
2023-06-03T12:47:49.368Z,100426.88
2023-06-03T12:50:19.776Z,100426.03
2023-06-03T12:52:49.205Z,100424.31
2023-06-03T12:55:19.918Z,100426.13
2023-06-03T12:57:50.305Z,100428.78
2023-06-03T13:00:21.760Z,100421.75
2023-06-03T13:02:55.128Z,100418.25
2023-06-03T13:05:24.277Z,100427.09
2023-06-03T13:07:53.020Z,100422.72
2023-06-03T13:10:21.668Z,100421.00
2023-06-03T13:12:50.502Z,100421.00
2023-06-03T13:15:19.539Z,100430.72
2023-06-03T13:17:48.029Z,100428.97
2023-06-03T13:20:18.436Z,100441.34
2023-06-03T13:22:47.103Z,100431.66
2023-06-03T13:25:15.549Z,100431.69
2023-06-03T13:27:44.615Z,100429.06
2023-06-03T13:30:14.798Z,100429.09
2023-06-03T13:32:44.009Z,100422.97
2023-06-03T13:35:13.443Z,100435.25
2023-06-03T13:37:43.369Z,100424.69
2023-06-03T13:40:12.464Z,100430.91
2023-06-03T13:42:42.351Z,100427.44
2023-06-03T13:45:11.940Z,100420.41
2023-06-03T13:47:41.095Z,100423.94
2023-06-03T13:50:11.034Z,100423.94
2023-06-03T13:52:39.678Z,100421.31
2023-06-03T13:55:11.082Z,100430.13
2023-06-03T13:57:39.829Z,100418.69
2023-06-03T14:00:10.187Z,100415.19
2023-06-03T14:02:39.093Z,100404.66
2023-06-03T14:05:09.703Z,100417.03
2023-06-03T14:07:38.143Z,100393.22
2023-06-03T14:10:10.592Z,100397.63
2023-06-03T14:12:39.137Z,100397.63
2023-06-03T14:15:09.535Z,100395.88
2023-06-03T14:17:38.186Z,100391.50
2023-06-03T14:20:08.468Z,100384.47
2023-06-03T14:22:37.005Z,100383.59
2023-06-03T14:25:06.430Z,100380.94
2023-06-03T14:27:36.631Z,100381.84
2023-06-03T14:30:06.523Z,100374.78
2023-06-03T14:32:35.344Z,100381.88
2023-06-03T14:35:08.758Z,100366.00
2023-06-03T14:37:37.608Z,100368.66
2023-06-03T14:40:07.632Z,100366.03
2023-06-03T14:42:37.453Z,100357.25
2023-06-03T14:45:07.167Z,100368.69
2023-06-03T14:47:35.667Z,100362.50
2023-06-03T14:50:04.241Z,100352.81
2023-06-03T14:52:32.871Z,100356.34
2023-06-03T14:55:01.398Z,100354.59
2023-06-03T14:57:30.229Z,100351.94
2023-06-03T15:00:00.061Z,100352.81
2023-06-03T15:02:29.613Z,100351.94
2023-06-03T15:04:58.746Z,100349.34
2023-06-03T15:07:27.315Z,100351.13
2023-06-03T15:09:55.706Z,100354.66
2023-06-03T15:12:24.271Z,100337.94
2023-06-03T15:14:52.657Z,100344.97
2023-06-03T15:17:22.875Z,100338.78
2023-06-03T15:19:51.319Z,100338.78
2023-06-03T15:22:19.837Z,100340.53
2023-06-03T15:24:48.352Z,100342.31
2023-06-03T15:27:17.207Z,100333.50
2023-06-03T15:29:45.733Z,100337.91
2023-06-03T15:32:14.156Z,100337.88
2023-06-03T15:34:44.260Z,100329.97
2023-06-03T15:37:12.755Z,100335.25
2023-06-03T15:39:41.253Z,100337.88
2023-06-03T15:42:11.033Z,100341.41
2023-06-03T15:44:40.198Z,100336.97
2023-06-03T15:47:08.958Z,100336.97
2023-06-03T15:49:37.494Z,100344.91
2023-06-03T15:52:08.484Z,100341.38
2023-06-03T15:54:36.866Z,100344.88
2023-06-03T15:57:07.211Z,100339.59
2023-06-03T15:59:36.306Z,100339.56
2023-06-03T16:02:06.012Z,100344.84
2023-06-03T16:04:36.866Z,100346.59
2023-06-03T16:07:07.017Z,100343.03
2023-06-03T16:09:35.954Z,100343.03
2023-06-03T16:12:05.035Z,100340.38
2023-06-03T16:14:33.609Z,100335.09
2023-06-03T16:17:04.886Z,100331.56
2023-06-03T16:19:34.628Z,100334.16
2023-06-03T16:22:03.305Z,100334.16
2023-06-03T16:24:34.111Z,100334.19
2023-06-03T16:27:02.858Z,100327.97
2023-06-03T16:29:31.307Z,100325.31
2023-06-03T16:31:59.907Z,100335.84
2023-06-03T16:34:28.782Z,100342.00
2023-06-03T16:36:57.291Z,100334.09
2023-06-03T16:39:26.087Z,100332.34
2023-06-03T16:41:56.424Z,100337.59
2023-06-03T16:44:25.122Z,100331.44
2023-06-03T16:46:53.597Z,100327.91
2023-06-03T16:49:22.985Z,100331.44
2023-06-03T16:51:52.342Z,100327.06
2023-06-03T16:54:20.844Z,100333.22
2023-06-03T16:56:49.531Z,100336.75
2023-06-03T16:59:20.023Z,100331.47
2023-06-03T17:01:48.696Z,100320.94
2023-06-03T17:04:17.524Z,100327.06
2023-06-03T17:06:46.026Z,100328.81
2023-06-03T17:09:14.896Z,100325.31
2023-06-03T17:11:43.424Z,100324.44
2023-06-03T17:14:12.040Z,100324.44
2023-06-03T17:16:43.444Z,100324.44
2023-06-03T17:19:12.354Z,100336.75
2023-06-03T17:21:40.836Z,100328.78
2023-06-03T17:24:09.378Z,100334.97
2023-06-03T17:26:38.892Z,100327.06
2023-06-03T17:29:08.273Z,100332.31
2023-06-03T17:31:37.038Z,100322.66
2023-06-03T17:34:07.225Z,100321.78
2023-06-03T17:36:36.170Z,100320.00
2023-06-03T17:39:05.054Z,100329.69
2023-06-03T17:41:36.410Z,100320.00
2023-06-03T17:44:04.960Z,100316.50
2023-06-03T17:46:33.680Z,100323.56
2023-06-03T17:49:02.530Z,100320.91
2023-06-03T17:51:32.803Z,100321.78
2023-06-03T17:54:01.344Z,100324.41
2023-06-03T17:56:29.889Z,100323.50
2023-06-03T17:58:58.378Z,100329.69
2023-06-03T18:01:27.158Z,100320.00
2023-06-03T18:03:55.753Z,100332.34
2023-06-03T18:06:24.169Z,100327.94
2023-06-03T18:08:56.784Z,100334.97
2023-06-03T18:11:27.307Z,100334.97
2023-06-03T18:13:55.997Z,100339.34
2023-06-03T18:16:24.346Z,100341.09
2023-06-03T18:18:54.534Z,100344.59
2023-06-03T18:21:23.126Z,100349.88
2023-06-03T18:23:53.321Z,100341.94
2023-06-03T18:26:28.725Z,100341.00
2023-06-03T18:28:57.896Z,100337.44
2023-06-03T18:31:26.573Z,100338.25
2023-06-03T18:33:55.448Z,100351.38
2023-06-03T18:36:23.905Z,100348.69
2023-06-03T18:38:53.793Z,100344.22
2023-06-03T18:41:22.735Z,100342.44
2023-06-03T18:43:51.195Z,100343.28
2023-06-03T18:46:19.810Z,100345.00
2023-06-03T18:48:48.562Z,100351.97
2023-06-03T18:51:17.046Z,100339.63
2023-06-03T18:53:45.457Z,100358.03
2023-06-03T18:56:16.259Z,100359.78
2023-06-03T18:58:48.332Z,100357.97
2023-06-03T19:01:18.782Z,100363.97
2023-06-03T19:03:47.368Z,100366.56
2023-06-03T19:06:16.401Z,100358.59
2023-06-03T19:08:44.925Z,100366.53
2023-06-03T19:11:14.725Z,100362.97
2023-06-03T19:13:43.238Z,100369.06
2023-06-03T19:16:11.683Z,100369.91
2023-06-03T19:18:40.372Z,100368.09
2023-06-03T19:21:08.870Z,100367.16
2023-06-03T19:23:38.411Z,100368.91
2023-06-03T19:26:07.978Z,100369.75
2023-06-03T19:28:39.065Z,100371.47
2023-06-03T19:31:07.695Z,100373.22
2023-06-03T19:33:36.744Z,100371.47
2023-06-03T19:36:05.635Z,100369.69
2023-06-03T19:38:35.658Z,100378.44
2023-06-03T19:41:04.512Z,100373.19
2023-06-03T19:43:33.298Z,100376.66
2023-06-03T19:46:03.213Z,100377.56
2023-06-03T19:48:31.785Z,100382.81
2023-06-03T19:51:00.394Z,100378.44
2023-06-03T19:53:29.305Z,100392.50
2023-06-03T19:55:57.834Z,100392.53
2023-06-03T19:58:26.392Z,100387.25
2023-06-03T20:00:55.417Z,100388.13
2023-06-03T20:03:25.320Z,100392.50
2023-06-03T20:05:53.760Z,100397.75
2023-06-03T20:08:22.354Z,100397.72
2023-06-03T20:10:50.935Z,100403.84
2023-06-03T20:13:33.118Z,100404.69
2023-06-03T20:16:03.450Z,100404.63
2023-06-03T20:18:34.363Z,100412.53
2023-06-03T20:21:03.072Z,100413.38
2023-06-03T20:23:31.903Z,100412.50
2023-06-03T20:26:02.640Z,100408.97
2023-06-03T20:28:32.580Z,100409.84
2023-06-03T20:31:01.098Z,100413.38
2023-06-03T20:33:30.483Z,100412.44
2023-06-03T20:36:02.778Z,100415.97
2023-06-03T20:38:32.508Z,100415.91
2023-06-03T20:41:01.573Z,100418.56
2023-06-03T20:43:31.439Z,100418.50
2023-06-03T20:46:00.305Z,100421.09
2023-06-03T20:48:29.274Z,100416.63
2023-06-03T20:50:59.355Z,100420.16
2023-06-03T20:53:27.854Z,100413.06
2023-06-03T20:55:56.424Z,100425.38
2023-06-03T20:58:24.835Z,100420.97
2023-06-03T21:00:53.298Z,100428.84
2023-06-03T21:03:21.870Z,100419.13
2023-06-03T21:05:50.775Z,100425.25
2023-06-03T21:08:20.739Z,100422.59
2023-06-03T21:10:49.409Z,100431.28
2023-06-03T21:13:17.911Z,100423.38
2023-06-03T21:15:46.518Z,100425.09
2023-06-03T21:18:15.768Z,100422.44
2023-06-03T21:20:44.391Z,100421.53
2023-06-03T21:23:12.829Z,100421.50
2023-06-03T21:25:42.589Z,100428.56
2023-06-03T21:28:11.101Z,100424.13
2023-06-03T21:30:39.462Z,100421.44
2023-06-03T21:33:08.227Z,100425.84
2023-06-03T21:35:36.766Z,100428.41
2023-06-03T21:38:05.568Z,100435.41
2023-06-03T21:40:34.360Z,100431.81
2023-06-03T21:43:04.268Z,100444.91
2023-06-03T21:45:32.751Z,100439.63
2023-06-03T21:48:01.572Z,100443.09
2023-06-03T21:50:30.222Z,100434.28
2023-06-03T21:52:59.284Z,100439.56
2023-06-03T21:55:28.279Z,100432.44
2023-06-03T21:57:56.716Z,100435.09
2023-06-03T22:00:26.581Z,100435.91
2023-06-03T22:02:55.166Z,100438.50
2023-06-03T22:05:24.218Z,100435.00
2023-06-03T22:07:52.986Z,100440.19
2023-06-03T22:10:22.199Z,100441.91
2023-06-03T22:12:51.000Z,100444.47
2023-06-03T22:15:19.771Z,100446.22
2023-06-03T22:17:50.471Z,100450.56
2023-06-03T22:20:20.491Z,100446.13
2023-06-03T22:23:02.430Z,100445.16
2023-06-03T22:25:36.891Z,100442.47
2023-06-03T22:28:06.542Z,100445.94
2023-06-03T22:30:35.232Z,100438.84
2023-06-03T22:33:08.860Z,100437.97
2023-06-03T22:35:41.718Z,100447.47
2023-06-03T22:38:10.562Z,100445.59
2023-06-03T22:40:39.419Z,100438.50
2023-06-03T22:43:08.254Z,100437.53
2023-06-03T22:45:36.862Z,100429.53
2023-06-03T22:48:07.740Z,100433.00
2023-06-03T22:50:36.883Z,100432.94
2023-06-03T22:53:06.184Z,100433.75
2023-06-03T22:55:35.250Z,100451.22
2023-06-03T22:58:04.095Z,100441.53
2023-06-03T23:00:33.143Z,100442.31
2023-06-03T23:03:01.958Z,100438.78
2023-06-03T23:05:32.581Z,100447.50
2023-06-03T23:08:01.181Z,100438.72
2023-06-03T23:10:29.814Z,100438.69
2023-06-03T23:12:58.449Z,100436.03
2023-06-03T23:15:27.727Z,100438.66
2023-06-03T23:17:56.459Z,100443.88
2023-06-03T23:20:27.131Z,100436.81
2023-06-03T23:22:57.268Z,100444.63
2023-06-03T23:25:26.351Z,100436.69
2023-06-03T23:27:55.006Z,100446.25
2023-06-03T23:30:23.692Z,100448.84
2023-06-03T23:32:52.315Z,100449.69
2023-06-03T23:35:21.206Z,100443.47
2023-06-03T23:37:49.804Z,100452.19
2023-06-03T23:40:20.302Z,100444.28
2023-06-03T23:42:49.094Z,100453.84
2023-06-03T23:45:17.801Z,100457.25
2023-06-03T23:47:46.744Z,100450.09
2023-06-03T23:50:15.881Z,100453.53
2023-06-03T23:52:44.520Z,100453.41
2023-06-03T23:55:14.399Z,100451.50
2023-06-03T23:57:44.428Z,100452.19
